sensor_id;sensor_type;location;lat;lon;timestamp;pressure;altitude;pressure_sealevel;temperature;humidity
64460;BME280;50828;53.756;21.140;2023-04-05T00:03:59;100411.05;;;-3.10;62.38
64460;BME280;50828;53.756;21.140;2023-04-05T00:09:08;100407.89;;;-3.13;62.52
64460;BME280;50828;53.756;21.140;2023-04-05T00:14:16;100404.92;;;-3.15;62.39
64460;BME280;50828;53.756;21.140;2023-04-05T00:19:24;100401.59;;;-3.18;62.49
64460;BME280;50828;53.756;21.140;2023-04-05T00:24:31;100400.32;;;-3.21;62.42
64460;BME280;50828;53.756;21.140;2023-04-05T00:29:44;100393.53;;;-3.24;62.68
64460;BME280;50828;53.756;21.140;2023-04-05T00:34:51;100387.46;;;-3.27;62.59
64460;BME280;50828;53.756;21.140;2023-04-05T00:39:59;100385.58;;;-3.27;62.63
64460;BME280;50828;53.756;21.140;2023-04-05T00:45:09;100381.64;;;-3.25;62.86
64460;BME280;50828;53.756;21.140;2023-04-05T00:50:17;100379.80;;;-3.22;63.03
64460;BME280;50828;53.756;21.140;2023-04-05T00:55:27;100385.42;;;-3.17;62.99
64460;BME280;50828;53.756;21.140;2023-04-05T01:00:37;100382.80;;;-3.10;63.18
64460;BME280;50828;53.756;21.140;2023-04-05T01:05:49;100374.66;;;-3.03;63.36
64460;BME280;50828;53.756;21.140;2023-04-05T01:11:02;100374.66;;;-2.94;63.33
64460;BME280;50828;53.756;21.140;2023-04-05T01:16:13;100370.86;;;-2.84;63.59
64460;BME280;50828;53.756;21.140;2023-04-05T01:21:59;100370.23;;;-2.71;63.55
64460;BME280;50828;53.756;21.140;2023-04-05T01:27:21;100369.64;;;-2.56;63.71
64460;BME280;50828;53.756;21.140;2023-04-05T01:32:48;100370.55;;;-2.44;63.53
64460;BME280;50828;53.756;21.140;2023-04-05T01:38:04;100375.73;;;-2.32;63.59
64460;BME280;50828;53.756;21.140;2023-04-05T01:43:15;100368.95;;;-2.25;63.50
64460;BME280;50828;53.756;21.140;2023-04-05T01:48:23;100370.46;;;-2.16;63.42
64460;BME280;50828;53.756;21.140;2023-04-05T01:53:31;100368.71;;;-2.07;63.58
64460;BME280;50828;53.756;21.140;2023-04-05T01:58:39;100364.84;;;-2.00;63.64
64460;BME280;50828;53.756;21.140;2023-04-05T02:03:47;100365.51;;;-1.91;63.46
64460;BME280;50828;53.756;21.140;2023-04-05T02:08:56;100363.73;;;-1.81;63.55
64460;BME280;50828;53.756;21.140;2023-04-05T02:14:04;100356.09;;;-1.72;63.64
64460;BME280;50828;53.756;21.140;2023-04-05T02:19:12;100354.64;;;-1.64;63.61
64460;BME280;50828;53.756;21.140;2023-04-05T02:24:22;100350.59;;;-1.56;63.61
64460;BME280;50828;53.756;21.140;2023-04-05T02:29:30;100350.17;;;-1.48;63.64
64460;BME280;50828;53.756;21.140;2023-04-05T02:34:39;100343.00;;;-1.42;63.55
64460;BME280;50828;53.756;21.140;2023-04-05T02:39:46;100339.11;;;-1.36;63.58
64460;BME280;50828;53.756;21.140;2023-04-05T02:44:53;100338.98;;;-1.32;63.55
64460;BME280;50828;53.756;21.140;2023-04-05T02:50:02;100339.57;;;-1.25;63.53
64460;BME280;50828;53.756;21.140;2023-04-05T02:55:15;100332.72;;;-1.19;63.36
64460;BME280;50828;53.756;21.140;2023-04-05T03:00:24;100331.05;;;-1.15;63.38
64460;BME280;50828;53.756;21.140;2023-04-05T03:05:33;100328.30;;;-1.12;63.50
64460;BME280;50828;53.756;21.140;2023-04-05T03:10:42;100331.27;;;-1.11;63.51
64460;BME280;50828;53.756;21.140;2023-04-05T03:15:55;100331.80;;;-1.09;63.58
64460;BME280;50828;53.756;21.140;2023-04-05T03:21:05;100331.48;;;-1.06;63.52
64460;BME280;50828;53.756;21.140;2023-04-05T03:26:30;100333.98;;;-0.99;63.63
64460;BME280;50828;53.756;21.140;2023-04-05T03:31:39;100330.41;;;-0.93;63.52
64460;BME280;50828;53.756;21.140;2023-04-05T03:36:47;100321.63;;;-0.88;63.47
64460;BME280;50828;53.756;21.140;2023-04-05T03:42:03;100321.50;;;-0.84;63.47
64460;BME280;50828;53.756;21.140;2023-04-05T03:47:11;100318.77;;;-0.80;63.47
64460;BME280;50828;53.756;21.140;2023-04-05T03:52:21;100303.35;;;-0.83;63.39
64460;BME280;50828;53.756;21.140;2023-04-05T03:57:31;100318.31;;;-0.72;63.41
64460;BME280;50828;53.756;21.140;2023-04-05T04:02:46;100320.09;;;-0.69;63.37
64460;BME280;50828;53.756;21.140;2023-04-05T04:07:58;100319.41;;;-0.66;63.35
64460;BME280;50828;53.756;21.140;2023-04-05T04:13:05;100324.11;;;-0.63;63.36
64460;BME280;50828;53.756;21.140;2023-04-05T04:18:13;100318.77;;;-0.61;63.39
64460;BME280;50828;53.756;21.140;2023-04-05T04:23:49;100324.50;;;-0.58;63.36
64460;BME280;50828;53.756;21.140;2023-04-05T04:29:17;100329.73;;;-0.54;63.27
64460;BME280;50828;53.756;21.140;2023-04-05T04:34:54;100327.85;;;-0.50;63.50
64460;BME280;50828;53.756;21.140;2023-04-05T04:40:30;100329.94;;;-0.50;63.48
64460;BME280;50828;53.756;21.140;2023-04-05T04:46:06;100333.38;;;-0.52;63.58
64460;BME280;50828;53.756;21.140;2023-04-05T04:51:38;100335.99;;;-0.49;63.56
64460;BME280;50828;53.756;21.140;2023-04-05T04:56:46;100335.16;;;-0.45;63.57
64460;BME280;50828;53.756;21.140;2023-04-05T05:01:54;100337.80;;;-0.40;63.61
64460;BME280;50828;53.756;21.140;2023-04-05T05:07:02;100338.35;;;-0.36;63.63
64460;BME280;50828;53.756;21.140;2023-04-05T05:12:12;100336.48;;;-0.31;63.51
64460;BME280;50828;53.756;21.140;2023-04-05T05:17:20;100337.90;;;-0.27;63.55
64460;BME280;50828;53.756;21.140;2023-04-05T05:22:28;100336.39;;;-0.22;63.57
64460;BME280;50828;53.756;21.140;2023-04-05T05:27:36;100330.85;;;-0.20;63.70
64460;BME280;50828;53.756;21.140;2023-04-05T05:32:45;100327.75;;;-0.17;63.54
64460;BME280;50828;53.756;21.140;2023-04-05T05:37:53;100327.08;;;-0.15;63.63
64460;BME280;50828;53.756;21.140;2023-04-05T05:43:00;100332.99;;;-0.11;63.60
64460;BME280;50828;53.756;21.140;2023-04-05T05:48:07;100336.83;;;-0.09;63.83
64460;BME280;50828;53.756;21.140;2023-04-05T05:53:16;100336.67;;;-0.04;63.72
64460;BME280;50828;53.756;21.140;2023-04-05T05:58:25;100335.15;;;0.02;63.92
64460;BME280;50828;53.756;21.140;2023-04-05T06:03:33;100336.06;;;0.07;63.82
64460;BME280;50828;53.756;21.140;2023-04-05T06:08:41;100333.51;;;0.14;64.09
64460;BME280;50828;53.756;21.140;2023-04-05T06:13:49;100337.36;;;0.22;64.01
64460;BME280;50828;53.756;21.140;2023-04-05T06:18:58;100343.63;;;0.28;64.04
64460;BME280;50828;53.756;21.140;2023-04-05T06:24:06;100345.56;;;0.34;63.98
64460;BME280;50828;53.756;21.140;2023-04-05T06:29:14;100342.98;;;0.38;64.14
64460;BME280;50828;53.756;21.140;2023-04-05T06:34:22;100343.34;;;0.42;64.01
64460;BME280;50828;53.756;21.140;2023-04-05T06:39:31;100340.77;;;0.46;63.98
64460;BME280;50828;53.756;21.140;2023-04-05T06:44:38;100339.58;;;0.51;64.09
64460;BME280;50828;53.756;21.140;2023-04-05T06:49:46;100344.80;;;0.57;64.03
64460;BME280;50828;53.756;21.140;2023-04-05T06:54:54;100340.50;;;0.63;64.10
64460;BME280;50828;53.756;21.140;2023-04-05T07:00:04;100346.77;;;0.72;64.20
64460;BME280;50828;53.756;21.140;2023-04-05T07:05:15;100350.25;;;0.79;64.10
64460;BME280;50828;53.756;21.140;2023-04-05T07:10:23;100351.16;;;0.86;64.28
64460;BME280;50828;53.756;21.140;2023-04-05T07:15:30;100351.52;;;0.96;64.21
64460;BME280;50828;53.756;21.140;2023-04-05T07:20:37;100341.13;;;0.99;64.28
64460;BME280;50828;53.756;21.140;2023-04-05T07:25:45;100355.57;;;1.20;64.34
64460;BME280;50828;53.756;21.140;2023-04-05T07:30:53;100358.02;;;1.33;64.07
64460;BME280;50828;53.756;21.140;2023-04-05T07:36:02;100357.52;;;1.48;64.11
64460;BME280;50828;53.756;21.140;2023-04-05T07:41:11;100360.31;;;1.68;64.18
64460;BME280;50828;53.756;21.140;2023-04-05T07:46:22;100356.64;;;1.90;64.01
64460;BME280;50828;53.756;21.140;2023-04-05T07:51:30;100360.60;;;2.15;63.88
64460;BME280;50828;53.756;21.140;2023-04-05T07:56:41;100353.60;;;2.41;64.07
64460;BME280;50828;53.756;21.140;2023-04-05T08:08:07;100349.71;;;3.27;63.70
64460;BME280;50828;53.756;21.140;2023-04-05T08:13:16;100349.84;;;3.59;62.96
64460;BME280;50828;53.756;21.140;2023-04-05T08:18:24;100350.91;;;3.77;61.80
64460;BME280;50828;53.756;21.140;2023-04-05T08:23:32;100349.27;;;3.86;61.33
64460;BME280;50828;53.756;21.140;2023-04-05T08:28:40;100348.89;;;3.89;60.04
64460;BME280;50828;53.756;21.140;2023-04-05T08:33:48;100352.39;;;3.86;59.48
64460;BME280;50828;53.756;21.140;2023-04-05T08:38:57;100352.98;;;3.78;58.83
64460;BME280;50828;53.756;21.140;2023-04-05T08:44:07;100355.85;;;3.69;57.89
64460;BME280;50828;53.756;21.140;2023-04-05T08:49:16;100363.60;;;3.59;57.38
64460;BME280;50828;53.756;21.140;2023-04-05T08:54:25;100366.48;;;3.45;57.19
64460;BME280;50828;53.756;21.140;2023-04-05T08:59:34;100369.35;;;3.33;57.20
64460;BME280;50828;53.756;21.140;2023-04-05T09:04:44;100369.40;;;3.23;57.40
64460;BME280;50828;53.756;21.140;2023-04-05T09:09:55;100371.71;;;3.15;57.35
64460;BME280;50828;53.756;21.140;2023-04-05T09:15:05;100370.01;;;3.09;57.43
64460;BME280;50828;53.756;21.140;2023-04-05T09:20:14;100372.80;;;3.06;57.34
64460;BME280;50828;53.756;21.140;2023-04-05T09:25:36;100376.64;;;3.03;57.09
64460;BME280;50828;53.756;21.140;2023-04-05T09:30:47;100374.21;;;3.03;57.22
64460;BME280;50828;53.756;21.140;2023-04-05T09:35:56;100374.56;;;3.04;57.09
64460;BME280;50828;53.756;21.140;2023-04-05T09:41:09;100373.51;;;3.07;57.45
64460;BME280;50828;53.756;21.140;2023-04-05T09:46:40;100381.65;;;3.12;56.92
64460;BME280;50828;53.756;21.140;2023-04-05T09:51:49;100387.02;;;3.18;56.70
64460;BME280;50828;53.756;21.140;2023-04-05T09:56:57;100387.86;;;3.21;56.45
64460;BME280;50828;53.756;21.140;2023-04-05T10:02:05;100387.31;;;3.27;56.49
64460;BME280;50828;53.756;21.140;2023-04-05T10:07:14;100387.27;;;3.33;56.17
64460;BME280;50828;53.756;21.140;2023-04-05T10:12:25;100386.54;;;3.38;56.04
64460;BME280;50828;53.756;21.140;2023-04-05T10:17:38;100390.51;;;3.45;56.15
64460;BME280;50828;53.756;21.140;2023-04-05T10:23:00;100394.98;;;3.54;55.93
64460;BME280;50828;53.756;21.140;2023-04-05T10:28:11;100394.60;;;3.57;55.67
64460;BME280;50828;53.756;21.140;2023-04-05T10:33:25;100392.49;;;3.60;55.61
64460;BME280;50828;53.756;21.140;2023-04-05T10:38:44;100392.13;;;3.61;55.00
64460;BME280;50828;53.756;21.140;2023-04-05T10:43:56;100392.83;;;3.62;55.03
64460;BME280;50828;53.756;21.140;2023-04-05T10:49:15;100390.90;;;3.64;54.61
64460;BME280;50828;53.756;21.140;2023-04-05T10:54:27;100392.28;;;3.67;54.64
64460;BME280;50828;53.756;21.140;2023-04-05T10:59:41;100390.67;;;3.71;54.82
64460;BME280;50828;53.756;21.140;2023-04-05T11:04:54;100388.20;;;3.77;54.52
64460;BME280;50828;53.756;21.140;2023-04-05T11:10:03;100386.56;;;3.84;54.22
64460;BME280;50828;53.756;21.140;2023-04-05T11:15:32;100388.42;;;3.92;54.03
64460;BME280;50828;53.756;21.140;2023-04-05T11:20:47;100384.68;;;4.01;54.20
64460;BME280;50828;53.756;21.140;2023-04-05T11:26:05;100390.83;;;4.14;54.01
64460;BME280;50828;53.756;21.140;2023-04-05T11:31:18;100394.91;;;4.25;53.89
64460;BME280;50828;53.756;21.140;2023-04-05T11:36:38;100399.19;;;4.34;53.53
64460;BME280;50828;53.756;21.140;2023-04-05T11:41:55;100399.50;;;4.37;52.92
64460;BME280;50828;53.756;21.140;2023-04-05T11:47:05;100403.52;;;4.35;52.44
64460;BME280;50828;53.756;21.140;2023-04-05T11:52:15;100408.98;;;4.31;52.52
64460;BME280;50828;53.756;21.140;2023-04-05T11:57:24;100403.80;;;4.25;52.26
64460;BME280;50828;53.756;21.140;2023-04-05T12:02:35;100401.09;;;4.16;52.61
64460;BME280;50828;53.756;21.140;2023-04-05T12:07:43;100397.15;;;4.11;52.36
64460;BME280;50828;53.756;21.140;2023-04-05T12:12:51;100395.77;;;4.09;52.06
64460;BME280;50828;53.756;21.140;2023-04-05T12:18:01;100394.88;;;4.10;52.30
64460;BME280;50828;53.756;21.140;2023-04-05T12:23:08;100395.39;;;4.11;52.37
64460;BME280;50828;53.756;21.140;2023-04-05T12:28:16;100397.65;;;4.13;52.39
64460;BME280;50828;53.756;21.140;2023-04-05T12:33:32;100397.60;;;4.17;52.39
64460;BME280;50828;53.756;21.140;2023-04-05T12:38:43;100399.83;;;4.21;52.10
64460;BME280;50828;53.756;21.140;2023-04-05T12:43:54;100400.15;;;4.25;51.97
64460;BME280;50828;53.756;21.140;2023-04-05T12:49:07;100398.73;;;4.27;52.20
64460;BME280;50828;53.756;21.140;2023-04-05T12:54:21;100398.20;;;4.27;52.13
64460;BME280;50828;53.756;21.140;2023-04-05T12:59:30;100402.55;;;4.29;52.07
64460;BME280;50828;53.756;21.140;2023-04-05T13:04:38;100406.56;;;4.28;52.19
64460;BME280;50828;53.756;21.140;2023-04-05T13:09:47;100411.97;;;4.26;51.96
64460;BME280;50828;53.756;21.140;2023-04-05T13:14:55;100413.77;;;4.23;51.96
64460;BME280;50828;53.756;21.140;2023-04-05T13:20:03;100416.56;;;4.21;51.84
64460;BME280;50828;53.756;21.140;2023-04-05T13:25:11;100418.85;;;4.19;51.83
64460;BME280;50828;53.756;21.140;2023-04-05T13:30:20;100419.56;;;4.17;52.10
64460;BME280;50828;53.756;21.140;2023-04-05T13:35:28;100421.48;;;4.17;51.94
64460;BME280;50828;53.756;21.140;2023-04-05T13:40:36;100422.02;;;4.16;51.91
64460;BME280;50828;53.756;21.140;2023-04-05T13:45:44;100419.59;;;4.14;51.92
64460;BME280;50828;53.756;21.140;2023-04-05T13:50:53;100416.11;;;4.13;51.92
64460;BME280;50828;53.756;21.140;2023-04-05T13:56:01;100418.05;;;4.11;51.80
64460;BME280;50828;53.756;21.140;2023-04-05T14:01:08;100417.89;;;4.09;52.12
64460;BME280;50828;53.756;21.140;2023-04-05T14:06:16;100421.91;;;4.08;52.44
64460;BME280;50828;53.756;21.140;2023-04-05T14:11:27;100407.15;;;4.03;52.83
64460;BME280;50828;53.756;21.140;2023-04-05T14:16:35;100421.02;;;4.11;52.93
64460;BME280;50828;53.756;21.140;2023-04-05T14:21:43;100424.12;;;4.14;53.18
64460;BME280;50828;53.756;21.140;2023-04-05T14:26:51;100427.41;;;4.17;53.16
64460;BME280;50828;53.756;21.140;2023-04-05T14:32:01;100434.34;;;4.20;53.27
64460;BME280;50828;53.756;21.140;2023-04-05T14:37:10;100442.16;;;4.25;53.15
64460;BME280;50828;53.756;21.140;2023-04-05T14:42:18;100440.39;;;4.27;53.19
64460;BME280;50828;53.756;21.140;2023-04-05T14:47:40;100441.42;;;4.31;52.98
64460;BME280;50828;53.756;21.140;2023-04-05T14:52:48;100443.48;;;4.35;53.28
64460;BME280;50828;53.756;21.140;2023-04-05T14:57:57;100445.86;;;4.39;53.35
64460;BME280;50828;53.756;21.140;2023-04-05T15:03:05;100445.66;;;4.43;53.28
64460;BME280;50828;53.756;21.140;2023-04-05T15:08:12;100449.65;;;4.44;53.21
64460;BME280;50828;53.756;21.140;2023-04-05T15:13:20;100457.67;;;4.44;53.34
64460;BME280;50828;53.756;21.140;2023-04-05T15:18:31;100455.43;;;4.42;53.24
64460;BME280;50828;53.756;21.140;2023-04-05T15:23:40;100455.78;;;4.41;53.38
64460;BME280;50828;53.756;21.140;2023-04-05T15:28:49;100458.41;;;4.40;53.06
64460;BME280;50828;53.756;21.140;2023-04-05T15:33:58;100464.19;;;4.37;52.78
64460;BME280;50828;53.756;21.140;2023-04-05T15:39:06;100462.98;;;4.35;52.82
64460;BME280;50828;53.756;21.140;2023-04-05T15:44:16;100468.58;;;4.34;53.10
64460;BME280;50828;53.756;21.140;2023-04-05T15:49:24;100455.56;;;4.27;52.89
64460;BME280;50828;53.756;21.140;2023-04-05T15:54:33;100472.27;;;4.32;52.95
64460;BME280;50828;53.756;21.140;2023-04-05T15:59:40;100479.75;;;4.33;53.07
64460;BME280;50828;53.756;21.140;2023-04-05T16:04:50;100487.59;;;4.33;53.13
64460;BME280;50828;53.756;21.140;2023-04-05T16:10:02;100491.59;;;4.34;52.95
64460;BME280;50828;53.756;21.140;2023-04-05T16:15:13;100495.27;;;4.34;52.97
64460;BME280;50828;53.756;21.140;2023-04-05T16:20:21;100492.67;;;4.31;53.00
64460;BME280;50828;53.756;21.140;2023-04-05T16:25:29;100493.20;;;4.29;53.16
64460;BME280;50828;53.756;21.140;2023-04-05T16:30:37;100494.25;;;4.28;53.10
64460;BME280;50828;53.756;21.140;2023-04-05T16:35:47;100498.30;;;4.25;53.27
64460;BME280;50828;53.756;21.140;2023-04-05T16:40:55;100500.95;;;4.21;53.61
64460;BME280;50828;53.756;21.140;2023-04-05T16:46:05;100505.50;;;4.18;54.03
64460;BME280;50828;53.756;21.140;2023-04-05T16:51:14;100508.33;;;4.15;54.09
64460;BME280;50828;53.756;21.140;2023-04-05T16:56:21;100508.35;;;4.10;54.54
64460;BME280;50828;53.756;21.140;2023-04-05T17:01:30;100505.77;;;4.05;54.73
64460;BME280;50828;53.756;21.140;2023-04-05T17:06:39;100507.21;;;4.00;54.72
64460;BME280;50828;53.756;21.140;2023-04-05T17:11:48;100509.85;;;3.96;55.10
64460;BME280;50828;53.756;21.140;2023-04-05T17:16:56;100511.80;;;3.91;55.34
64460;BME280;50828;53.756;21.140;2023-04-05T17:22:03;100514.27;;;3.87;55.38
64460;BME280;50828;53.756;21.140;2023-04-05T17:27:11;100506.63;;;3.82;55.39
64460;BME280;50828;53.756;21.140;2023-04-05T17:32:20;100515.55;;;3.78;55.54
64460;BME280;50828;53.756;21.140;2023-04-05T17:37:28;100521.48;;;3.73;55.89
64460;BME280;50828;53.756;21.140;2023-04-05T17:42:37;100521.16;;;3.69;56.01
64460;BME280;50828;53.756;21.140;2023-04-05T17:47:45;100528.50;;;3.65;56.26
64460;BME280;50828;53.756;21.140;2023-04-05T17:52:54;100531.84;;;3.61;56.30
64460;BME280;50828;53.756;21.140;2023-04-05T17:58:03;100541.08;;;3.58;56.39
64460;BME280;50828;53.756;21.140;2023-04-05T18:03:11;100539.19;;;3.54;56.52
64460;BME280;50828;53.756;21.140;2023-04-05T18:08:22;100541.81;;;3.49;56.55
64460;BME280;50828;53.756;21.140;2023-04-05T18:13:32;100543.56;;;3.45;56.48
64460;BME280;50828;53.756;21.140;2023-04-05T18:18:41;100540.98;;;3.42;56.71
64460;BME280;50828;53.756;21.140;2023-04-05T18:23:49;100542.38;;;3.38;56.62
64460;BME280;50828;53.756;21.140;2023-04-05T18:28:57;100544.48;;;3.35;56.79
64460;BME280;50828;53.756;21.140;2023-04-05T18:34:06;100544.66;;;3.31;56.87
64460;BME280;50828;53.756;21.140;2023-04-05T18:39:15;100548.50;;;3.28;56.97
64460;BME280;50828;53.756;21.140;2023-04-05T18:44:25;100554.44;;;3.25;57.03
64460;BME280;50828;53.756;21.140;2023-04-05T18:49:35;100563.14;;;3.22;57.08
64460;BME280;50828;53.756;21.140;2023-04-05T18:54:43;100567.34;;;3.19;57.07
64460;BME280;50828;53.756;21.140;2023-04-05T18:59:52;100572.05;;;3.16;57.17
64460;BME280;50828;53.756;21.140;2023-04-05T19:05:01;100570.65;;;3.15;57.07
64460;BME280;50828;53.756;21.140;2023-04-05T19:10:11;100575.52;;;3.14;57.20
64460;BME280;50828;53.756;21.140;2023-04-05T19:15:19;100576.92;;;3.15;57.15
64460;BME280;50828;53.756;21.140;2023-04-05T19:20:28;100577.96;;;3.15;57.20
64460;BME280;50828;53.756;21.140;2023-04-05T19:25:36;100578.48;;;3.16;57.27
64460;BME280;50828;53.756;21.140;2023-04-05T19:30:44;100575.70;;;3.15;57.22
64460;BME280;50828;53.756;21.140;2023-04-05T19:35:52;100579.19;;;3.12;57.32
64460;BME280;50828;53.756;21.140;2023-04-05T19:40:59;100587.36;;;3.09;57.36
64460;BME280;50828;53.756;21.140;2023-04-05T19:46:08;100585.82;;;3.04;57.24
64460;BME280;50828;53.756;21.140;2023-04-05T19:51:25;100592.08;;;3.01;57.61
64460;BME280;50828;53.756;21.140;2023-04-05T19:56:35;100589.83;;;2.97;57.75
64460;BME280;50828;53.756;21.140;2023-04-05T20:01:44;100593.48;;;2.93;57.94
64460;BME280;50828;53.756;21.140;2023-04-05T20:06:53;100594.71;;;2.89;58.09
64460;BME280;50828;53.756;21.140;2023-04-05T20:12:02;100596.11;;;2.85;58.03
64460;BME280;50828;53.756;21.140;2023-04-05T20:17:10;100593.67;;;2.81;58.39
64460;BME280;50828;53.756;21.140;2023-04-05T20:22:21;100591.59;;;2.77;58.53
64460;BME280;50828;53.756;21.140;2023-04-05T20:27:29;100586.19;;;2.73;58.45
64460;BME280;50828;53.756;21.140;2023-04-05T20:32:38;100588.81;;;2.72;58.55
64460;BME280;50828;53.756;21.140;2023-04-05T20:37:48;100586.55;;;2.71;58.68
64460;BME280;50828;53.756;21.140;2023-04-05T20:42:56;100582.90;;;2.72;58.53
64460;BME280;50828;53.756;21.140;2023-04-05T20:48:05;100585.15;;;2.72;58.63
64460;BME280;50828;53.756;21.140;2023-04-05T20:53:14;100581.32;;;2.73;58.66
64460;BME280;50828;53.756;21.140;2023-04-05T20:58:22;100580.98;;;2.75;58.87
64460;BME280;50828;53.756;21.140;2023-04-05T21:03:31;100576.46;;;2.77;58.73
64460;BME280;50828;53.756;21.140;2023-04-05T21:08:41;100579.59;;;2.79;58.64
64460;BME280;50828;53.756;21.140;2023-04-05T21:13:49;100567.59;;;2.73;58.87
64460;BME280;50828;53.756;21.140;2023-04-05T21:18:57;100575.94;;;2.80;58.80
64460;BME280;50828;53.756;21.140;2023-04-05T21:24:05;100578.89;;;2.77;58.89
64460;BME280;50828;53.756;21.140;2023-04-05T21:29:13;100584.63;;;2.73;58.99
64460;BME280;50828;53.756;21.140;2023-04-05T21:34:22;100580.81;;;2.69;59.01
64460;BME280;50828;53.756;21.140;2023-04-05T21:39:30;100574.38;;;2.65;59.22
64460;BME280;50828;53.756;21.140;2023-04-05T21:44:38;100568.82;;;2.59;59.45
64460;BME280;50828;53.756;21.140;2023-04-05T21:49:45;100564.48;;;2.55;59.47
64460;BME280;50828;53.756;21.140;2023-04-05T21:54:53;100562.38;;;2.51;59.62
64460;BME280;50828;53.756;21.140;2023-04-05T22:00:01;100558.90;;;2.50;59.56
64460;BME280;50828;53.756;21.140;2023-04-05T22:05:20;100562.02;;;2.48;59.71
64460;BME280;50828;53.756;21.140;2023-04-05T22:10:42;100563.77;;;2.48;59.86
64460;BME280;50828;53.756;21.140;2023-04-05T22:15:51;100559.95;;;2.49;59.91
64460;BME280;50828;53.756;21.140;2023-04-05T22:20:59;100561.33;;;2.51;59.84
64460;BME280;50828;53.756;21.140;2023-04-05T22:26:07;100561.34;;;2.53;59.81
64460;BME280;50828;53.756;21.140;2023-04-05T22:31:16;100558.92;;;2.54;59.80
64460;BME280;50828;53.756;21.140;2023-04-05T22:36:24;100563.09;;;2.57;59.91
64460;BME280;50828;53.756;21.140;2023-04-05T22:41:33;100564.81;;;2.59;59.89
64460;BME280;50828;53.756;21.140;2023-04-05T22:46:41;100565.16;;;2.61;59.91
64460;BME280;50828;53.756;21.140;2023-04-05T22:51:50;100569.50;;;2.65;59.92
64460;BME280;50828;53.756;21.140;2023-04-05T22:56:58;100571.08;;;2.67;60.00
64460;BME280;50828;53.756;21.140;2023-04-05T23:02:06;100567.41;;;2.70;59.98
64460;BME280;50828;53.756;21.140;2023-04-05T23:07:14;100568.11;;;2.73;60.03
64460;BME280;50828;53.756;21.140;2023-04-05T23:12:21;100568.10;;;2.76;59.86
64460;BME280;50828;53.756;21.140;2023-04-05T23:17:28;100567.41;;;2.78;59.94
64460;BME280;50828;53.756;21.140;2023-04-05T23:22:37;100559.42;;;2.79;59.95
64460;BME280;50828;53.756;21.140;2023-04-05T23:27:45;100556.80;;;2.77;60.03
64460;BME280;50828;53.756;21.140;2023-04-05T23:32:54;100555.06;;;2.74;60.06
64460;BME280;50828;53.756;21.140;2023-04-05T23:38:03;100552.11;;;2.71;60.21
64460;BME280;50828;53.756;21.140;2023-04-05T23:43:11;100555.42;;;2.67;60.29
64460;BME280;50828;53.756;21.140;2023-04-05T23:48:19;100553.86;;;2.64;60.31
64460;BME280;50828;53.756;21.140;2023-04-05T23:53:27;100544.28;;;2.61;60.45
64460;BME280;50828;53.756;21.140;2023-04-05T23:58:34;100543.08;;;2.59;60.51
